Terminal Aerodrome Forecast
Issued by NWS

Home | Current Version | Previous Version | Text Only | Print | Product List | Glossary Off
Versions: 1 2 3 4 5 6 7 8 9 10 11 12 13 14 15 16 17 18 19 20 21 22 23 24 25 26 27 28 29 30 31 32 33 34 35 36 37 38 39 40 41 42 43

000
FTUS43 KGRB 231500 AAB
TAFRHI
TAF AMD
KRHI 231555Z 2316/2412 06008KT 1/4SM +SN FZFG OVC007
      TEMPO 2316/2318 1SM -SN BR
     FM231800 05007KT 1SM -SN BR OVC005
     FM232100 05006KT 1 1/2SM -FZDZSN BR OVC002
     FM240200 33005KT 4SM BR OVC008
     FM240900 35005KT 3SM -FZDZ BR OVC012=

USA.gov is the U.S. government's official web portal to all federal, state and local government web resources and services.